sensor_id;sensor_type;location;lat;lon;timestamp;P1;durP1;ratioP1;P2;durP2;ratioP2
65982;SDS011;52740;40.620;-8.640;2022-08-01T00:01:20;11.90;;;5.78;;
65982;SDS011;52740;40.620;-8.640;2022-08-01T00:03:22;11.30;;;5.85;;
65982;SDS011;52740;40.620;-8.640;2022-08-01T00:05:22;12.27;;;6.10;;
65982;SDS011;52740;40.620;-8.640;2022-08-01T00:07:23;11.65;;;5.85;;
65982;SDS011;52740;40.620;-8.640;2022-08-01T00:09:24;12.82;;;5.65;;
65982;SDS011;52740;40.620;-8.640;2022-08-01T00:11:25;7.53;;;5.57;;
65982;SDS011;52740;40.620;-8.640;2022-08-01T00:13:25;11.18;;;5.60;;
65982;SDS011;52740;40.620;-8.640;2022-08-01T00:15:26;12.65;;;5.55;;
65982;SDS011;52740;40.620;-8.640;2022-08-01T00:17:27;12.23;;;5.78;;
65982;SDS011;52740;40.620;-8.640;2022-08-01T00:19:28;13.80;;;5.78;;
65982;SDS011;52740;40.620;-8.640;2022-08-01T00:21:28;12.80;;;6.28;;
65982;SDS011;52740;40.620;-8.640;2022-08-01T00:23:29;8.55;;;4.75;;
65982;SDS011;52740;40.620;-8.640;2022-08-01T00:25:31;11.10;;;6.30;;
65982;SDS011;52740;40.620;-8.640;2022-08-01T00:27:32;10.98;;;6.07;;
65982;SDS011;52740;40.620;-8.640;2022-08-01T00:29:33;9.25;;;5.55;;
65982;SDS011;52740;40.620;-8.640;2022-08-01T00:31:34;8.13;;;6.22;;
65982;SDS011;52740;40.620;-8.640;2022-08-01T00:33:34;15.30;;;5.88;;
65982;SDS011;52740;40.620;-8.640;2022-08-01T00:35:35;8.45;;;5.70;;
65982;SDS011;52740;40.620;-8.640;2022-08-01T00:37:36;10.32;;;5.55;;
65982;SDS011;52740;40.620;-8.640;2022-08-01T00:39:36;7.40;;;5.18;;
65982;SDS011;52740;40.620;-8.640;2022-08-01T00:41:37;10.02;;;5.53;;
65982;SDS011;52740;40.620;-8.640;2022-08-01T00:43:38;14.90;;;5.85;;
65982;SDS011;52740;40.620;-8.640;2022-08-01T00:45:39;19.50;;;6.35;;
65982;SDS011;52740;40.620;-8.640;2022-08-01T00:47:40;15.98;;;6.30;;
65982;SDS011;52740;40.620;-8.640;2022-08-01T00:49:40;18.95;;;6.28;;
65982;SDS011;52740;40.620;-8.640;2022-08-01T00:51:41;11.80;;;6.10;;
65982;SDS011;52740;40.620;-8.640;2022-08-01T00:53:42;11.15;;;5.43;;
65982;SDS011;52740;40.620;-8.640;2022-08-01T00:55:43;11.07;;;5.78;;
65982;SDS011;52740;40.620;-8.640;2022-08-01T00:57:44;9.95;;;5.32;;
65982;SDS011;52740;40.620;-8.640;2022-08-01T00:59:45;13.13;;;6.30;;
65982;SDS011;52740;40.620;-8.640;2022-08-01T01:01:46;11.50;;;6.40;;
65982;SDS011;52740;40.620;-8.640;2022-08-01T01:03:48;15.07;;;5.95;;
65982;SDS011;52740;40.620;-8.640;2022-08-01T01:06:11;17.35;;;6.20;;
65982;SDS011;52740;40.620;-8.640;2022-08-01T01:08:27;9.88;;;6.35;;
65982;SDS011;52740;40.620;-8.640;2022-08-01T01:10:40;10.60;;;5.88;;
65982;SDS011;52740;40.620;-8.640;2022-08-01T01:13:02;12.07;;;5.82;;
65982;SDS011;52740;40.620;-8.640;2022-08-01T01:15:08;12.80;;;6.38;;
65982;SDS011;52740;40.620;-8.640;2022-08-01T01:17:16;14.00;;;6.25;;
65982;SDS011;52740;40.620;-8.640;2022-08-01T01:19:21;17.73;;;6.53;;
65982;SDS011;52740;40.620;-8.640;2022-08-01T01:24:34;18.23;;;7.25;;
65982;SDS011;52740;40.620;-8.640;2022-08-01T01:26:49;12.50;;;6.85;;
65982;SDS011;52740;40.620;-8.640;2022-08-01T01:30:58;10.98;;;5.97;;
65982;SDS011;52740;40.620;-8.640;2022-08-01T01:33:01;14.23;;;6.95;;
65982;SDS011;52740;40.620;-8.640;2022-08-01T01:35:06;11.90;;;6.45;;
65982;SDS011;52740;40.620;-8.640;2022-08-01T01:37:12;12.50;;;6.55;;
65982;SDS011;52740;40.620;-8.640;2022-08-01T01:39:16;8.73;;;6.35;;
65982;SDS011;52740;40.620;-8.640;2022-08-01T01:41:18;9.60;;;6.47;;
65982;SDS011;52740;40.620;-8.640;2022-08-01T01:43:21;21.30;;;6.95;;
65982;SDS011;52740;40.620;-8.640;2022-08-01T01:45:24;16.52;;;6.63;;
65982;SDS011;52740;40.620;-8.640;2022-08-01T01:47:26;13.35;;;6.68;;
65982;SDS011;52740;40.620;-8.640;2022-08-01T01:49:28;11.98;;;6.60;;
65982;SDS011;52740;40.620;-8.640;2022-08-01T01:51:30;8.13;;;5.65;;
65982;SDS011;52740;40.620;-8.640;2022-08-01T01:53:33;15.23;;;6.80;;
65982;SDS011;52740;40.620;-8.640;2022-08-01T01:55:38;14.98;;;7.03;;
65982;SDS011;52740;40.620;-8.640;2022-08-01T01:57:41;13.00;;;6.20;;
65982;SDS011;52740;40.620;-8.640;2022-08-01T01:59:44;12.13;;;6.78;;
65982;SDS011;52740;40.620;-8.640;2022-08-01T02:01:47;13.82;;;6.95;;
65982;SDS011;52740;40.620;-8.640;2022-08-01T02:03:50;14.93;;;6.65;;
65982;SDS011;52740;40.620;-8.640;2022-08-01T02:05:54;16.45;;;6.95;;
65982;SDS011;52740;40.620;-8.640;2022-08-01T02:07:55;10.60;;;7.03;;
65982;SDS011;52740;40.620;-8.640;2022-08-01T02:09:57;18.58;;;7.38;;
65982;SDS011;52740;40.620;-8.640;2022-08-01T02:12:00;17.60;;;7.90;;
65982;SDS011;52740;40.620;-8.640;2022-08-01T02:14:03;14.85;;;7.80;;
65982;SDS011;52740;40.620;-8.640;2022-08-01T02:16:08;12.43;;;7.13;;
65982;SDS011;52740;40.620;-8.640;2022-08-01T02:18:13;13.90;;;6.40;;
65982;SDS011;52740;40.620;-8.640;2022-08-01T02:20:15;14.15;;;7.38;;
65982;SDS011;52740;40.620;-8.640;2022-08-01T02:22:18;21.23;;;6.55;;
65982;SDS011;52740;40.620;-8.640;2022-08-01T02:24:35;9.80;;;6.85;;
65982;SDS011;52740;40.620;-8.640;2022-08-01T02:26:42;15.13;;;6.80;;
65982;SDS011;52740;40.620;-8.640;2022-08-01T02:28:50;14.27;;;8.02;;
65982;SDS011;52740;40.620;-8.640;2022-08-01T02:30:57;13.45;;;6.80;;
65982;SDS011;52740;40.620;-8.640;2022-08-01T02:33:04;14.65;;;6.40;;
65982;SDS011;52740;40.620;-8.640;2022-08-01T02:35:10;18.55;;;6.85;;
65982;SDS011;52740;40.620;-8.640;2022-08-01T02:37:18;10.75;;;6.80;;
65982;SDS011;52740;40.620;-8.640;2022-08-01T02:39:21;11.35;;;6.80;;
65982;SDS011;52740;40.620;-8.640;2022-08-01T02:41:24;14.77;;;6.90;;
65982;SDS011;52740;40.620;-8.640;2022-08-01T02:43:27;13.00;;;7.97;;
65982;SDS011;52740;40.620;-8.640;2022-08-01T02:45:30;12.65;;;7.00;;
65982;SDS011;52740;40.620;-8.640;2022-08-01T02:47:32;17.75;;;7.10;;
65982;SDS011;52740;40.620;-8.640;2022-08-01T02:49:37;14.98;;;6.97;;
65982;SDS011;52740;40.620;-8.640;2022-08-01T02:51:42;15.35;;;6.78;;
65982;SDS011;52740;40.620;-8.640;2022-08-01T02:53:45;10.68;;;6.40;;
65982;SDS011;52740;40.620;-8.640;2022-08-01T02:55:48;10.82;;;6.78;;
65982;SDS011;52740;40.620;-8.640;2022-08-01T02:57:51;15.15;;;7.47;;
65982;SDS011;52740;40.620;-8.640;2022-08-01T02:59:55;11.15;;;7.13;;
65982;SDS011;52740;40.620;-8.640;2022-08-01T03:01:59;17.73;;;6.78;;
65982;SDS011;52740;40.620;-8.640;2022-08-01T03:04:03;17.45;;;7.45;;
65982;SDS011;52740;40.620;-8.640;2022-08-01T03:06:05;13.03;;;7.07;;
65982;SDS011;52740;40.620;-8.640;2022-08-01T03:08:07;12.20;;;7.55;;
65982;SDS011;52740;40.620;-8.640;2022-08-01T03:10:10;17.38;;;7.68;;
65982;SDS011;52740;40.620;-8.640;2022-08-01T03:12:16;15.30;;;6.65;;
65982;SDS011;52740;40.620;-8.640;2022-08-01T03:14:19;14.32;;;7.13;;
65982;SDS011;52740;40.620;-8.640;2022-08-01T03:16:21;16.55;;;6.80;;
65982;SDS011;52740;40.620;-8.640;2022-08-01T03:18:25;15.88;;;6.80;;
65982;SDS011;52740;40.620;-8.640;2022-08-01T03:20:27;12.25;;;6.85;;
65982;SDS011;52740;40.620;-8.640;2022-08-01T03:22:30;15.63;;;7.93;;
65982;SDS011;52740;40.620;-8.640;2022-08-01T03:24:34;17.15;;;7.53;;
65982;SDS011;52740;40.620;-8.640;2022-08-01T03:26:37;13.55;;;7.60;;
65982;SDS011;52740;40.620;-8.640;2022-08-01T03:28:40;11.93;;;7.63;;
65982;SDS011;52740;40.620;-8.640;2022-08-01T03:30:43;15.05;;;8.52;;
65982;SDS011;52740;40.620;-8.640;2022-08-01T03:32:45;18.02;;;8.73;;
65982;SDS011;52740;40.620;-8.640;2022-08-01T03:34:46;17.55;;;8.23;;
65982;SDS011;52740;40.620;-8.640;2022-08-01T03:39:08;15.77;;;8.50;;
65982;SDS011;52740;40.620;-8.640;2022-08-01T03:41:13;16.33;;;9.27;;
65982;SDS011;52740;40.620;-8.640;2022-08-01T03:43:19;19.02;;;9.13;;
65982;SDS011;52740;40.620;-8.640;2022-08-01T03:45:34;17.50;;;8.32;;
65982;SDS011;52740;40.620;-8.640;2022-08-01T03:47:38;16.10;;;8.02;;
65982;SDS011;52740;40.620;-8.640;2022-08-01T03:49:44;18.48;;;8.00;;
65982;SDS011;52740;40.620;-8.640;2022-08-01T03:51:47;11.77;;;8.70;;
65982;SDS011;52740;40.620;-8.640;2022-08-01T03:53:50;17.90;;;7.93;;
65982;SDS011;52740;40.620;-8.640;2022-08-01T03:55:52;17.20;;;7.22;;
65982;SDS011;52740;40.620;-8.640;2022-08-01T03:57:54;22.00;;;8.07;;
65982;SDS011;52740;40.620;-8.640;2022-08-01T03:59:57;26.88;;;8.60;;
65982;SDS011;52740;40.620;-8.640;2022-08-01T04:01:59;23.27;;;8.95;;
65982;SDS011;52740;40.620;-8.640;2022-08-01T04:04:00;22.63;;;8.85;;
65982;SDS011;52740;40.620;-8.640;2022-08-01T04:06:04;18.83;;;8.40;;
65982;SDS011;52740;40.620;-8.640;2022-08-01T04:08:08;26.10;;;8.02;;
65982;SDS011;52740;40.620;-8.640;2022-08-01T04:10:09;20.45;;;7.15;;
65982;SDS011;52740;40.620;-8.640;2022-08-01T04:12:10;24.63;;;8.60;;
65982;SDS011;52740;40.620;-8.640;2022-08-01T04:14:11;20.45;;;7.50;;
65982;SDS011;52740;40.620;-8.640;2022-08-01T04:16:11;33.05;;;8.50;;
65982;SDS011;52740;40.620;-8.640;2022-08-01T04:18:12;14.63;;;7.35;;
65982;SDS011;52740;40.620;-8.640;2022-08-01T04:20:13;23.63;;;8.20;;
65982;SDS011;52740;40.620;-8.640;2022-08-01T04:22:15;22.90;;;8.45;;
65982;SDS011;52740;40.620;-8.640;2022-08-01T04:24:17;23.42;;;8.27;;
65982;SDS011;52740;40.620;-8.640;2022-08-01T04:26:21;22.70;;;7.88;;
65982;SDS011;52740;40.620;-8.640;2022-08-01T04:28:23;16.30;;;7.65;;
65982;SDS011;52740;40.620;-8.640;2022-08-01T04:30:26;24.85;;;7.80;;
65982;SDS011;52740;40.620;-8.640;2022-08-01T04:32:31;16.92;;;7.93;;
65982;SDS011;52740;40.620;-8.640;2022-08-01T04:34:35;24.80;;;9.20;;
65982;SDS011;52740;40.620;-8.640;2022-08-01T04:36:40;19.80;;;7.90;;
65982;SDS011;52740;40.620;-8.640;2022-08-01T04:38:45;21.98;;;8.88;;
65982;SDS011;52740;40.620;-8.640;2022-08-01T04:40:50;22.40;;;8.57;;
65982;SDS011;52740;40.620;-8.640;2022-08-01T04:42:52;25.30;;;8.55;;
65982;SDS011;52740;40.620;-8.640;2022-08-01T04:44:53;20.20;;;9.20;;
65982;SDS011;52740;40.620;-8.640;2022-08-01T04:46:54;20.40;;;8.60;;
65982;SDS011;52740;40.620;-8.640;2022-08-01T04:48:56;17.33;;;8.88;;
65982;SDS011;52740;40.620;-8.640;2022-08-01T04:50:58;26.20;;;8.30;;
65982;SDS011;52740;40.620;-8.640;2022-08-01T04:52:59;29.95;;;9.65;;
65982;SDS011;52740;40.620;-8.640;2022-08-01T04:55:04;27.52;;;8.10;;
65982;SDS011;52740;40.620;-8.640;2022-08-01T04:57:08;30.20;;;9.88;;
65982;SDS011;52740;40.620;-8.640;2022-08-01T04:59:09;24.77;;;8.75;;
65982;SDS011;52740;40.620;-8.640;2022-08-01T05:01:28;28.30;;;8.13;;
65982;SDS011;52740;40.620;-8.640;2022-08-01T05:03:29;29.33;;;8.40;;
65982;SDS011;52740;40.620;-8.640;2022-08-01T05:05:30;21.15;;;8.25;;
65982;SDS011;52740;40.620;-8.640;2022-08-01T05:07:32;22.67;;;8.20;;
65982;SDS011;52740;40.620;-8.640;2022-08-01T05:09:33;20.77;;;7.13;;
65982;SDS011;52740;40.620;-8.640;2022-08-01T05:11:34;17.58;;;7.55;;
65982;SDS011;52740;40.620;-8.640;2022-08-01T05:13:35;19.02;;;7.22;;
65982;SDS011;52740;40.620;-8.640;2022-08-01T05:15:36;16.17;;;7.35;;
65982;SDS011;52740;40.620;-8.640;2022-08-01T05:17:36;33.90;;;8.20;;
65982;SDS011;52740;40.620;-8.640;2022-08-01T05:19:38;23.02;;;8.30;;
65982;SDS011;52740;40.620;-8.640;2022-08-01T05:21:40;19.67;;;7.35;;
65982;SDS011;52740;40.620;-8.640;2022-08-01T05:23:41;24.73;;;8.85;;
65982;SDS011;52740;40.620;-8.640;2022-08-01T05:25:42;18.73;;;8.10;;
65982;SDS011;52740;40.620;-8.640;2022-08-01T05:27:43;20.80;;;7.10;;
65982;SDS011;52740;40.620;-8.640;2022-08-01T05:29:44;16.85;;;6.97;;
65982;SDS011;52740;40.620;-8.640;2022-08-01T05:31:44;20.52;;;6.72;;
65982;SDS011;52740;40.620;-8.640;2022-08-01T05:33:45;24.15;;;6.82;;
65982;SDS011;52740;40.620;-8.640;2022-08-01T05:35:46;15.27;;;6.60;;
65982;SDS011;52740;40.620;-8.640;2022-08-01T05:37:47;21.70;;;6.65;;
65982;SDS011;52740;40.620;-8.640;2022-08-01T05:39:47;16.77;;;7.35;;
65982;SDS011;52740;40.620;-8.640;2022-08-01T05:41:48;19.00;;;6.75;;
65982;SDS011;52740;40.620;-8.640;2022-08-01T05:43:49;17.63;;;7.72;;
65982;SDS011;52740;40.620;-8.640;2022-08-01T05:45:50;20.20;;;7.32;;
65982;SDS011;52740;40.620;-8.640;2022-08-01T05:47:51;14.70;;;7.30;;
65982;SDS011;52740;40.620;-8.640;2022-08-01T05:49:51;18.77;;;7.00;;
65982;SDS011;52740;40.620;-8.640;2022-08-01T05:51:52;19.98;;;7.22;;
65982;SDS011;52740;40.620;-8.640;2022-08-01T05:53:53;18.65;;;6.88;;
65982;SDS011;52740;40.620;-8.640;2022-08-01T05:55:55;19.10;;;6.18;;
65982;SDS011;52740;40.620;-8.640;2022-08-01T05:57:55;14.73;;;6.72;;
65982;SDS011;52740;40.620;-8.640;2022-08-01T05:59:56;16.30;;;6.25;;
65982;SDS011;52740;40.620;-8.640;2022-08-01T06:01:57;19.30;;;6.60;;
65982;SDS011;52740;40.620;-8.640;2022-08-01T06:03:58;13.05;;;5.70;;
65982;SDS011;52740;40.620;-8.640;2022-08-01T06:05:59;13.35;;;6.10;;
65982;SDS011;52740;40.620;-8.640;2022-08-01T06:08:00;14.15;;;5.43;;
65982;SDS011;52740;40.620;-8.640;2022-08-01T06:10:01;10.18;;;4.57;;
65982;SDS011;52740;40.620;-8.640;2022-08-01T06:12:02;11.68;;;5.57;;
65982;SDS011;52740;40.620;-8.640;2022-08-01T06:14:03;11.15;;;4.95;;
65982;SDS011;52740;40.620;-8.640;2022-08-01T06:16:04;8.45;;;5.07;;
65982;SDS011;52740;40.620;-8.640;2022-08-01T06:18:05;11.02;;;5.45;;
65982;SDS011;52740;40.620;-8.640;2022-08-01T06:20:06;8.75;;;5.10;;
65982;SDS011;52740;40.620;-8.640;2022-08-01T06:22:08;18.67;;;7.35;;
65982;SDS011;52740;40.620;-8.640;2022-08-01T06:24:09;17.50;;;6.07;;
65982;SDS011;52740;40.620;-8.640;2022-08-01T06:26:09;14.35;;;6.20;;
65982;SDS011;52740;40.620;-8.640;2022-08-01T06:28:11;14.00;;;5.97;;
65982;SDS011;52740;40.620;-8.640;2022-08-01T06:30:11;13.07;;;5.68;;
65982;SDS011;52740;40.620;-8.640;2022-08-01T06:32:12;18.17;;;5.82;;
65982;SDS011;52740;40.620;-8.640;2022-08-01T06:34:13;14.65;;;5.25;;
65982;SDS011;52740;40.620;-8.640;2022-08-01T06:36:15;13.07;;;5.32;;
65982;SDS011;52740;40.620;-8.640;2022-08-01T06:38:16;12.30;;;5.88;;
65982;SDS011;52740;40.620;-8.640;2022-08-01T06:40:17;10.13;;;5.15;;
65982;SDS011;52740;40.620;-8.640;2022-08-01T06:42:18;11.05;;;6.07;;
65982;SDS011;52740;40.620;-8.640;2022-08-01T06:44:18;10.65;;;6.25;;
65982;SDS011;52740;40.620;-8.640;2022-08-01T06:46:19;13.75;;;5.97;;
65982;SDS011;52740;40.620;-8.640;2022-08-01T06:48:20;17.73;;;6.57;;
65982;SDS011;52740;40.620;-8.640;2022-08-01T06:50:21;12.00;;;6.15;;
65982;SDS011;52740;40.620;-8.640;2022-08-01T06:52:21;16.55;;;7.30;;
65982;SDS011;52740;40.620;-8.640;2022-08-01T06:54:22;17.83;;;8.05;;
65982;SDS011;52740;40.620;-8.640;2022-08-01T06:56:23;19.92;;;8.85;;
65982;SDS011;52740;40.620;-8.640;2022-08-01T06:58:24;21.05;;;8.43;;
65982;SDS011;52740;40.620;-8.640;2022-08-01T07:00:25;24.58;;;9.20;;
65982;SDS011;52740;40.620;-8.640;2022-08-01T07:02:26;21.45;;;8.35;;
65982;SDS011;52740;40.620;-8.640;2022-08-01T07:04:27;20.90;;;8.43;;
65982;SDS011;52740;40.620;-8.640;2022-08-01T07:06:27;17.88;;;8.63;;
65982;SDS011;52740;40.620;-8.640;2022-08-01T07:08:28;29.02;;;8.93;;
65982;SDS011;52740;40.620;-8.640;2022-08-01T07:10:29;18.55;;;7.65;;
65982;SDS011;52740;40.620;-8.640;2022-08-01T07:12:30;22.00;;;9.02;;
65982;SDS011;52740;40.620;-8.640;2022-08-01T07:14:31;19.08;;;8.63;;
65982;SDS011;52740;40.620;-8.640;2022-08-01T07:16:31;27.65;;;9.07;;
65982;SDS011;52740;40.620;-8.640;2022-08-01T07:18:32;19.95;;;8.55;;
65982;SDS011;52740;40.620;-8.640;2022-08-01T07:20:33;14.38;;;8.48;;
65982;SDS011;52740;40.620;-8.640;2022-08-01T07:22:34;15.50;;;7.90;;
65982;SDS011;52740;40.620;-8.640;2022-08-01T07:24:35;18.35;;;7.57;;
65982;SDS011;52740;40.620;-8.640;2022-08-01T07:26:36;15.65;;;7.82;;
65982;SDS011;52740;40.620;-8.640;2022-08-01T07:28:37;22.40;;;7.40;;
65982;SDS011;52740;40.620;-8.640;2022-08-01T07:30:37;14.60;;;7.32;;
65982;SDS011;52740;40.620;-8.640;2022-08-01T07:32:38;15.40;;;7.47;;
65982;SDS011;52740;40.620;-8.640;2022-08-01T07:34:39;14.82;;;6.40;;
65982;SDS011;52740;40.620;-8.640;2022-08-01T07:36:40;16.30;;;6.60;;
65982;SDS011;52740;40.620;-8.640;2022-08-01T07:38:40;15.65;;;7.75;;
65982;SDS011;52740;40.620;-8.640;2022-08-01T07:40:41;12.10;;;5.30;;
65982;SDS011;52740;40.620;-8.640;2022-08-01T07:42:42;14.07;;;4.90;;
65982;SDS011;52740;40.620;-8.640;2022-08-01T07:44:45;11.68;;;4.75;;
65982;SDS011;52740;40.620;-8.640;2022-08-01T07:46:45;12.43;;;4.82;;
65982;SDS011;52740;40.620;-8.640;2022-08-01T07:48:46;9.82;;;4.32;;
65982;SDS011;52740;40.620;-8.640;2022-08-01T07:50:47;13.27;;;4.40;;
65982;SDS011;52740;40.620;-8.640;2022-08-01T07:52:48;13.02;;;5.32;;
65982;SDS011;52740;40.620;-8.640;2022-08-01T07:54:48;9.75;;;4.10;;
65982;SDS011;52740;40.620;-8.640;2022-08-01T07:56:49;10.48;;;4.40;;
65982;SDS011;52740;40.620;-8.640;2022-08-01T07:58:50;11.82;;;4.35;;
65982;SDS011;52740;40.620;-8.640;2022-08-01T08:00:51;6.78;;;3.65;;
65982;SDS011;52740;40.620;-8.640;2022-08-01T08:02:52;12.57;;;4.32;;
65982;SDS011;52740;40.620;-8.640;2022-08-01T08:04:53;10.15;;;4.80;;
65982;SDS011;52740;40.620;-8.640;2022-08-01T08:06:54;7.68;;;4.07;;
65982;SDS011;52740;40.620;-8.640;2022-08-01T08:08:55;14.35;;;4.30;;
65982;SDS011;52740;40.620;-8.640;2022-08-01T08:10:56;11.73;;;5.03;;
65982;SDS011;52740;40.620;-8.640;2022-08-01T08:12:57;17.20;;;5.43;;
65982;SDS011;52740;40.620;-8.640;2022-08-01T08:14:57;8.45;;;4.18;;
65982;SDS011;52740;40.620;-8.640;2022-08-01T08:17:00;13.80;;;5.47;;
65982;SDS011;52740;40.620;-8.640;2022-08-01T08:19:01;7.70;;;4.93;;
65982;SDS011;52740;40.620;-8.640;2022-08-01T08:21:01;9.38;;;4.93;;
65982;SDS011;52740;40.620;-8.640;2022-08-01T08:23:02;15.32;;;5.15;;
65982;SDS011;52740;40.620;-8.640;2022-08-01T08:25:23;12.75;;;5.95;;
65982;SDS011;52740;40.620;-8.640;2022-08-01T08:27:24;15.63;;;6.43;;
65982;SDS011;52740;40.620;-8.640;2022-08-01T08:29:25;6.68;;;5.10;;
65982;SDS011;52740;40.620;-8.640;2022-08-01T08:31:27;9.38;;;5.63;;
65982;SDS011;52740;40.620;-8.640;2022-08-01T08:33:28;8.43;;;5.78;;
65982;SDS011;52740;40.620;-8.640;2022-08-01T08:35:29;10.30;;;5.63;;
65982;SDS011;52740;40.620;-8.640;2022-08-01T08:37:29;9.38;;;5.78;;
65982;SDS011;52740;40.620;-8.640;2022-08-01T08:39:30;14.65;;;5.63;;
65982;SDS011;52740;40.620;-8.640;2022-08-01T08:41:32;13.95;;;7.07;;
65982;SDS011;52740;40.620;-8.640;2022-08-01T08:43:34;12.77;;;6.30;;
65982;SDS011;52740;40.620;-8.640;2022-08-01T08:45:35;8.98;;;5.85;;
65982;SDS011;52740;40.620;-8.640;2022-08-01T08:47:36;11.50;;;6.07;;
65982;SDS011;52740;40.620;-8.640;2022-08-01T08:49:37;20.75;;;6.20;;
65982;SDS011;52740;40.620;-8.640;2022-08-01T08:51:38;13.27;;;6.03;;
65982;SDS011;52740;40.620;-8.640;2022-08-01T08:55:44;9.93;;;5.88;;
65982;SDS011;52740;40.620;-8.640;2022-08-01T08:57:45;10.95;;;6.50;;
65982;SDS011;52740;40.620;-8.640;2022-08-01T08:59:47;9.73;;;6.53;;
65982;SDS011;52740;40.620;-8.640;2022-08-01T09:01:52;11.90;;;6.75;;
65982;SDS011;52740;40.620;-8.640;2022-08-01T09:03:53;9.98;;;6.28;;
65982;SDS011;52740;40.620;-8.640;2022-08-01T09:05:53;10.35;;;6.93;;
65982;SDS011;52740;40.620;-8.640;2022-08-01T09:07:54;10.68;;;7.20;;
65982;SDS011;52740;40.620;-8.640;2022-08-01T09:09:55;9.13;;;6.63;;
65982;SDS011;52740;40.620;-8.640;2022-08-01T09:11:56;15.95;;;7.47;;
65982;SDS011;52740;40.620;-8.640;2022-08-01T09:16:15;11.07;;;6.50;;
65982;SDS011;52740;40.620;-8.640;2022-08-01T09:18:29;6.93;;;6.20;;
65982;SDS011;52740;40.620;-8.640;2022-08-01T09:20:40;10.73;;;6.65;;
65982;SDS011;52740;40.620;-8.640;2022-08-01T09:22:41;8.48;;;7.10;;
65982;SDS011;52740;40.620;-8.640;2022-08-01T09:24:42;12.25;;;7.38;;
65982;SDS011;52740;40.620;-8.640;2022-08-01T09:26:56;11.48;;;7.60;;
65982;SDS011;52740;40.620;-8.640;2022-08-01T09:28:57;11.80;;;7.70;;
65982;SDS011;52740;40.620;-8.640;2022-08-01T09:31:06;8.15;;;6.88;;
65982;SDS011;52740;40.620;-8.640;2022-08-01T09:33:11;11.15;;;7.70;;
65982;SDS011;52740;40.620;-8.640;2022-08-01T09:35:25;14.30;;;7.75;;
65982;SDS011;52740;40.620;-8.640;2022-08-01T09:37:30;14.27;;;7.57;;
65982;SDS011;52740;40.620;-8.640;2022-08-01T09:39:32;9.85;;;6.85;;
65982;SDS011;52740;40.620;-8.640;2022-08-01T09:41:40;9.63;;;6.30;;
65982;SDS011;52740;40.620;-8.640;2022-08-01T09:43:47;8.18;;;6.15;;
65982;SDS011;52740;40.620;-8.640;2022-08-01T09:45:50;10.60;;;6.63;;
65982;SDS011;52740;40.620;-8.640;2022-08-01T09:47:51;8.07;;;6.80;;
65982;SDS011;52740;40.620;-8.640;2022-08-01T09:49:55;7.85;;;6.40;;
65982;SDS011;52740;40.620;-8.640;2022-08-01T09:51:58;12.15;;;6.70;;
65982;SDS011;52740;40.620;-8.640;2022-08-01T09:54:09;7.40;;;6.35;;
65982;SDS011;52740;40.620;-8.640;2022-08-01T09:56:10;8.52;;;6.35;;
65982;SDS011;52740;40.620;-8.640;2022-08-01T09:58:12;8.35;;;5.95;;
65982;SDS011;52740;40.620;-8.640;2022-08-01T10:00:16;12.68;;;6.95;;
65982;SDS011;52740;40.620;-8.640;2022-08-01T10:02:38;9.05;;;5.85;;
65982;SDS011;52740;40.620;-8.640;2022-08-01T10:06:50;13.93;;;7.03;;
65982;SDS011;52740;40.620;-8.640;2022-08-01T10:08:54;12.18;;;7.07;;
65982;SDS011;52740;40.620;-8.640;2022-08-01T10:11:07;10.75;;;5.53;;
65982;SDS011;52740;40.620;-8.640;2022-08-01T10:13:09;12.60;;;6.32;;
65982;SDS011;52740;40.620;-8.640;2022-08-01T10:15:13;12.93;;;7.60;;
65982;SDS011;52740;40.620;-8.640;2022-08-01T10:17:17;7.72;;;5.78;;
65982;SDS011;52740;40.620;-8.640;2022-08-01T10:19:21;9.45;;;4.75;;
65982;SDS011;52740;40.620;-8.640;2022-08-01T10:21:23;8.40;;;4.82;;
65982;SDS011;52740;40.620;-8.640;2022-08-01T10:23:27;6.07;;;4.60;;
65982;SDS011;52740;40.620;-8.640;2022-08-01T10:25:35;6.85;;;4.22;;
65982;SDS011;52740;40.620;-8.640;2022-08-01T10:27:41;7.95;;;4.55;;
65982;SDS011;52740;40.620;-8.640;2022-08-01T10:31:55;6.80;;;4.72;;
65982;SDS011;52740;40.620;-8.640;2022-08-01T10:33:57;9.73;;;4.80;;
65982;SDS011;52740;40.620;-8.640;2022-08-01T10:35:58;5.80;;;5.20;;
65982;SDS011;52740;40.620;-8.640;2022-08-01T10:37:59;4.97;;;4.53;;
65982;SDS011;52740;40.620;-8.640;2022-08-01T10:40:00;6.45;;;4.70;;
65982;SDS011;52740;40.620;-8.640;2022-08-01T10:42:02;8.45;;;5.03;;
65982;SDS011;52740;40.620;-8.640;2022-08-01T10:44:03;8.40;;;5.55;;
65982;SDS011;52740;40.620;-8.640;2022-08-01T10:46:06;7.25;;;4.63;;
65982;SDS011;52740;40.620;-8.640;2022-08-01T10:48:16;11.02;;;5.10;;
65982;SDS011;52740;40.620;-8.640;2022-08-01T10:52:29;5.68;;;4.75;;
65982;SDS011;52740;40.620;-8.640;2022-08-01T10:54:29;6.63;;;4.55;;
65982;SDS011;52740;40.620;-8.640;2022-08-01T10:56:40;9.18;;;4.28;;
65982;SDS011;52740;40.620;-8.640;2022-08-01T10:58:46;5.35;;;4.35;;
65982;SDS011;52740;40.620;-8.640;2022-08-01T11:00:48;5.82;;;4.00;;
65982;SDS011;52740;40.620;-8.640;2022-08-01T11:02:59;5.00;;;3.65;;
65982;SDS011;52740;40.620;-8.640;2022-08-01T11:05:02;7.78;;;4.10;;
65982;SDS011;52740;40.620;-8.640;2022-08-01T11:07:08;6.97;;;4.80;;
65982;SDS011;52740;40.620;-8.640;2022-08-01T11:09:20;8.68;;;5.65;;
65982;SDS011;52740;40.620;-8.640;2022-08-01T11:11:24;5.35;;;4.80;;
65982;SDS011;52740;40.620;-8.640;2022-08-01T11:16:24;8.10;;;4.03;;
65982;SDS011;52740;40.620;-8.640;2022-08-01T11:20:29;5.07;;;4.07;;
65982;SDS011;52740;40.620;-8.640;2022-08-01T11:22:54;4.93;;;3.83;;
65982;SDS011;52740;40.620;-8.640;2022-08-01T11:24:59;4.45;;;3.65;;
65982;SDS011;52740;40.620;-8.640;2022-08-01T11:29:22;4.40;;;3.85;;
65982;SDS011;52740;40.620;-8.640;2022-08-01T11:38:23;7.45;;;4.10;;
65982;SDS011;52740;40.620;-8.640;2022-08-01T11:40:30;5.65;;;4.03;;
65982;SDS011;52740;40.620;-8.640;2022-08-01T11:42:31;9.00;;;4.75;;
65982;SDS011;52740;40.620;-8.640;2022-08-01T11:44:33;11.55;;;4.60;;
65982;SDS011;52740;40.620;-8.640;2022-08-01T11:49:22;5.72;;;4.53;;
65982;SDS011;52740;40.620;-8.640;2022-08-01T11:51:23;6.03;;;5.43;;
65982;SDS011;52740;40.620;-8.640;2022-08-01T11:53:24;5.32;;;4.82;;
65982;SDS011;52740;40.620;-8.640;2022-08-01T11:55:25;5.13;;;4.70;;
65982;SDS011;52740;40.620;-8.640;2022-08-01T11:57:27;6.43;;;5.82;;
65982;SDS011;52740;40.620;-8.640;2022-08-01T11:59:44;6.25;;;5.47;;
65982;SDS011;52740;40.620;-8.640;2022-08-01T12:01:47;9.10;;;5.55;;
65982;SDS011;52740;40.620;-8.640;2022-08-01T12:03:54;6.20;;;5.43;;
65982;SDS011;52740;40.620;-8.640;2022-08-01T12:05:56;5.53;;;5.13;;
65982;SDS011;52740;40.620;-8.640;2022-08-01T12:08:00;6.53;;;6.03;;
65982;SDS011;52740;40.620;-8.640;2022-08-01T12:10:05;7.63;;;6.10;;
65982;SDS011;52740;40.620;-8.640;2022-08-01T12:12:08;7.75;;;6.22;;
65982;SDS011;52740;40.620;-8.640;2022-08-01T12:16:36;6.03;;;5.43;;
65982;SDS011;52740;40.620;-8.640;2022-08-01T12:18:40;6.20;;;4.75;;
65982;SDS011;52740;40.620;-8.640;2022-08-01T12:20:43;7.70;;;5.15;;
65982;SDS011;52740;40.620;-8.640;2022-08-01T12:22:45;5.80;;;4.90;;
65982;SDS011;52740;40.620;-8.640;2022-08-01T12:24:46;5.03;;;4.63;;
65982;SDS011;52740;40.620;-8.640;2022-08-01T12:26:47;6.05;;;5.53;;
65982;SDS011;52740;40.620;-8.640;2022-08-01T12:28:47;5.95;;;5.28;;
65982;SDS011;52740;40.620;-8.640;2022-08-01T12:30:48;8.88;;;5.55;;
65982;SDS011;52740;40.620;-8.640;2022-08-01T12:32:49;8.07;;;5.95;;
65982;SDS011;52740;40.620;-8.640;2022-08-01T12:34:51;6.50;;;5.47;;
65982;SDS011;52740;40.620;-8.640;2022-08-01T12:36:57;7.28;;;5.97;;
65982;SDS011;52740;40.620;-8.640;2022-08-01T12:38:59;7.03;;;5.97;;
65982;SDS011;52740;40.620;-8.640;2022-08-01T12:41:02;5.82;;;5.28;;